sensor_id;sensor_type;location;lat;lon;timestamp;P1;durP1;ratioP1;P2;durP2;ratioP2
11964;SDS011;6042;41.326;19.826;2023-11-19T00:01:14;3.90;;;2.90;;
11964;SDS011;6042;41.326;19.826;2023-11-19T00:03:43;5.60;;;3.13;;
11964;SDS011;6042;41.326;19.826;2023-11-19T00:06:15;4.30;;;2.80;;
11964;SDS011;6042;41.326;19.826;2023-11-19T00:08:44;3.90;;;2.87;;
11964;SDS011;6042;41.326;19.826;2023-11-19T00:11:13;6.23;;;2.70;;
11964;SDS011;6042;41.326;19.826;2023-11-19T00:13:42;4.03;;;3.63;;
11964;SDS011;6042;41.326;19.826;2023-11-19T00:16:11;3.87;;;3.00;;
11964;SDS011;6042;41.326;19.826;2023-11-19T00:18:41;3.10;;;2.80;;
11964;SDS011;6042;41.326;19.826;2023-11-19T00:21:10;3.40;;;3.07;;
11964;SDS011;6042;41.326;19.826;2023-11-19T00:23:39;5.07;;;2.63;;
11964;SDS011;6042;41.326;19.826;2023-11-19T00:26:07;2.97;;;2.60;;
11964;SDS011;6042;41.326;19.826;2023-11-19T00:28:37;5.17;;;2.40;;
11964;SDS011;6042;41.326;19.826;2023-11-19T00:31:06;5.30;;;2.70;;
11964;SDS011;6042;41.326;19.826;2023-11-19T00:33:35;2.67;;;2.40;;
11964;SDS011;6042;41.326;19.826;2023-11-19T00:36:18;5.53;;;3.50;;
11964;SDS011;6042;41.326;19.826;2023-11-19T00:38:47;5.17;;;3.50;;
11964;SDS011;6042;41.326;19.826;2023-11-19T00:41:15;4.03;;;3.33;;
11964;SDS011;6042;41.326;19.826;2023-11-19T00:43:44;2.73;;;2.53;;
11964;SDS011;6042;41.326;19.826;2023-11-19T00:46:13;3.03;;;2.63;;
11964;SDS011;6042;41.326;19.826;2023-11-19T00:48:41;3.90;;;2.60;;
11964;SDS011;6042;41.326;19.826;2023-11-19T00:51:11;3.73;;;2.63;;
11964;SDS011;6042;41.326;19.826;2023-11-19T00:53:42;3.20;;;2.90;;
11964;SDS011;6042;41.326;19.826;2023-11-19T00:56:10;3.13;;;2.80;;
11964;SDS011;6042;41.326;19.826;2023-11-19T00:58:40;4.77;;;2.50;;
11964;SDS011;6042;41.326;19.826;2023-11-19T01:01:09;4.37;;;2.93;;
11964;SDS011;6042;41.326;19.826;2023-11-19T01:03:39;3.20;;;2.80;;
11964;SDS011;6042;41.326;19.826;2023-11-19T01:06:08;3.20;;;2.53;;
11964;SDS011;6042;41.326;19.826;2023-11-19T01:08:37;2.97;;;2.67;;
11964;SDS011;6042;41.326;19.826;2023-11-19T01:11:07;2.70;;;2.50;;
11964;SDS011;6042;41.326;19.826;2023-11-19T01:13:37;3.07;;;2.70;;
11964;SDS011;6042;41.326;19.826;2023-11-19T01:16:06;2.70;;;2.50;;
11964;SDS011;6042;41.326;19.826;2023-11-19T01:18:36;4.37;;;3.00;;
11964;SDS011;6042;41.326;19.826;2023-11-19T01:21:07;2.97;;;2.40;;
11964;SDS011;6042;41.326;19.826;2023-11-19T01:23:36;2.93;;;2.60;;
11964;SDS011;6042;41.326;19.826;2023-11-19T01:26:04;2.93;;;2.70;;
11964;SDS011;6042;41.326;19.826;2023-11-19T01:28:38;3.87;;;2.83;;
11964;SDS011;6042;41.326;19.826;2023-11-19T01:31:15;2.80;;;2.57;;
11964;SDS011;6042;41.326;19.826;2023-11-19T01:33:43;2.60;;;2.40;;
11964;SDS011;6042;41.326;19.826;2023-11-19T01:36:13;3.30;;;2.53;;
11964;SDS011;6042;41.326;19.826;2023-11-19T01:38:42;2.70;;;2.50;;
11964;SDS011;6042;41.326;19.826;2023-11-19T01:41:11;3.03;;;2.63;;
11964;SDS011;6042;41.326;19.826;2023-11-19T01:43:41;3.07;;;2.40;;
11964;SDS011;6042;41.326;19.826;2023-11-19T01:46:10;3.13;;;2.83;;
11964;SDS011;6042;41.326;19.826;2023-11-19T01:48:40;3.73;;;2.67;;
11964;SDS011;6042;41.326;19.826;2023-11-19T01:51:11;3.67;;;2.80;;
11964;SDS011;6042;41.326;19.826;2023-11-19T01:53:43;3.47;;;2.77;;
11964;SDS011;6042;41.326;19.826;2023-11-19T01:56:13;3.73;;;2.37;;
11964;SDS011;6042;41.326;19.826;2023-11-19T01:58:44;2.50;;;2.30;;
11964;SDS011;6042;41.326;19.826;2023-11-19T02:01:14;3.47;;;3.17;;
11964;SDS011;6042;41.326;19.826;2023-11-19T02:03:43;2.93;;;2.60;;
11964;SDS011;6042;41.326;19.826;2023-11-19T02:06:14;2.83;;;2.63;;
11964;SDS011;6042;41.326;19.826;2023-11-19T02:08:43;3.07;;;2.27;;
11964;SDS011;6042;41.326;19.826;2023-11-19T02:11:11;2.30;;;2.10;;
11964;SDS011;6042;41.326;19.826;2023-11-19T02:13:40;2.43;;;2.23;;
11964;SDS011;6042;41.326;19.826;2023-11-19T02:16:12;3.60;;;2.30;;
11964;SDS011;6042;41.326;19.826;2023-11-19T02:18:42;2.10;;;1.90;;
11964;SDS011;6042;41.326;19.826;2023-11-19T02:21:10;2.37;;;2.17;;
11964;SDS011;6042;41.326;19.826;2023-11-19T02:23:41;3.23;;;2.67;;
11964;SDS011;6042;41.326;19.826;2023-11-19T02:26:12;2.30;;;2.10;;
11964;SDS011;6042;41.326;19.826;2023-11-19T02:28:46;2.87;;;2.07;;
11964;SDS011;6042;41.326;19.826;2023-11-19T02:31:15;3.37;;;2.53;;
11964;SDS011;6042;41.326;19.826;2023-11-19T02:33:44;2.90;;;2.53;;
11964;SDS011;6042;41.326;19.826;2023-11-19T02:36:12;4.97;;;2.40;;
11964;SDS011;6042;41.326;19.826;2023-11-19T02:38:43;2.47;;;2.00;;
11964;SDS011;6042;41.326;19.826;2023-11-19T02:41:13;2.43;;;2.20;;
11964;SDS011;6042;41.326;19.826;2023-11-19T02:43:42;2.07;;;1.90;;
11964;SDS011;6042;41.326;19.826;2023-11-19T02:46:12;2.37;;;2.00;;
11964;SDS011;6042;41.326;19.826;2023-11-19T02:48:42;3.03;;;2.30;;
11964;SDS011;6042;41.326;19.826;2023-11-19T02:51:11;2.90;;;2.20;;
11964;SDS011;6042;41.326;19.826;2023-11-19T02:53:39;2.30;;;2.10;;
11964;SDS011;6042;41.326;19.826;2023-11-19T02:56:11;2.60;;;2.40;;
11964;SDS011;6042;41.326;19.826;2023-11-19T02:58:46;2.90;;;1.87;;
11964;SDS011;6042;41.326;19.826;2023-11-19T03:01:22;2.80;;;1.87;;
11964;SDS011;6042;41.326;19.826;2023-11-19T03:03:59;2.13;;;1.73;;
11964;SDS011;6042;41.326;19.826;2023-11-19T03:06:30;2.63;;;1.77;;
11964;SDS011;6042;41.326;19.826;2023-11-19T03:08:59;2.00;;;1.70;;
11964;SDS011;6042;41.326;19.826;2023-11-19T03:11:32;3.43;;;1.70;;
11964;SDS011;6042;41.326;19.826;2023-11-19T03:14:01;2.47;;;1.93;;
11964;SDS011;6042;41.326;19.826;2023-11-19T03:16:33;2.80;;;2.13;;
11964;SDS011;6042;41.326;19.826;2023-11-19T03:19:01;1.77;;;1.67;;
11964;SDS011;6042;41.326;19.826;2023-11-19T03:21:31;2.20;;;1.93;;
11964;SDS011;6042;41.326;19.826;2023-11-19T03:24:00;1.90;;;1.63;;
11964;SDS011;6042;41.326;19.826;2023-11-19T03:26:28;2.13;;;2.00;;
11964;SDS011;6042;41.326;19.826;2023-11-19T03:28:57;3.23;;;2.10;;
11964;SDS011;6042;41.326;19.826;2023-11-19T03:31:25;2.10;;;1.97;;
11964;SDS011;6042;41.326;19.826;2023-11-19T03:33:56;2.67;;;1.87;;
11964;SDS011;6042;41.326;19.826;2023-11-19T03:36:25;2.10;;;1.90;;
11964;SDS011;6042;41.326;19.826;2023-11-19T03:39:00;1.97;;;1.87;;
11964;SDS011;6042;41.326;19.826;2023-11-19T03:41:29;1.90;;;1.80;;
11964;SDS011;6042;41.326;19.826;2023-11-19T03:44:01;2.17;;;1.90;;
11964;SDS011;6042;41.326;19.826;2023-11-19T03:46:30;2.43;;;2.23;;
11964;SDS011;6042;41.326;19.826;2023-11-19T03:49:00;2.07;;;1.97;;
11964;SDS011;6042;41.326;19.826;2023-11-19T03:51:32;1.83;;;1.63;;
11964;SDS011;6042;41.326;19.826;2023-11-19T03:54:01;4.30;;;1.90;;
11964;SDS011;6042;41.326;19.826;2023-11-19T03:56:30;2.40;;;1.97;;
11964;SDS011;6042;41.326;19.826;2023-11-19T03:58:59;2.00;;;1.87;;
11964;SDS011;6042;41.326;19.826;2023-11-19T04:01:28;2.47;;;2.13;;
11964;SDS011;6042;41.326;19.826;2023-11-19T04:03:56;7.60;;;2.10;;
11964;SDS011;6042;41.326;19.826;2023-11-19T04:06:27;1.83;;;1.73;;
11964;SDS011;6042;41.326;19.826;2023-11-19T04:08:56;2.10;;;1.90;;
11964;SDS011;6042;41.326;19.826;2023-11-19T04:11:24;2.03;;;1.50;;
11964;SDS011;6042;41.326;19.826;2023-11-19T04:13:53;3.77;;;2.27;;
11964;SDS011;6042;41.326;19.826;2023-11-19T04:16:25;3.40;;;1.93;;
11964;SDS011;6042;41.326;19.826;2023-11-19T04:18:56;2.40;;;1.77;;
11964;SDS011;6042;41.326;19.826;2023-11-19T04:21:25;4.00;;;1.97;;
11964;SDS011;6042;41.326;19.826;2023-11-19T04:23:55;2.20;;;1.97;;
11964;SDS011;6042;41.326;19.826;2023-11-19T04:26:23;2.80;;;2.60;;
11964;SDS011;6042;41.326;19.826;2023-11-19T04:28:55;3.30;;;2.60;;
11964;SDS011;6042;41.326;19.826;2023-11-19T04:31:27;4.97;;;2.70;;
11964;SDS011;6042;41.326;19.826;2023-11-19T04:33:59;2.50;;;2.27;;
11964;SDS011;6042;41.326;19.826;2023-11-19T04:36:27;2.60;;;2.00;;
11964;SDS011;6042;41.326;19.826;2023-11-19T04:38:57;2.67;;;2.00;;
11964;SDS011;6042;41.326;19.826;2023-11-19T04:41:26;1.70;;;1.60;;
11964;SDS011;6042;41.326;19.826;2023-11-19T04:43:55;3.43;;;1.70;;
11964;SDS011;6042;41.326;19.826;2023-11-19T04:46:24;1.23;;;1.23;;
11964;SDS011;6042;41.326;19.826;2023-11-19T04:48:53;1.27;;;1.10;;
11964;SDS011;6042;41.326;19.826;2023-11-19T04:51:21;1.63;;;1.40;;
11964;SDS011;6042;41.326;19.826;2023-11-19T04:53:50;1.40;;;1.30;;
11964;SDS011;6042;41.326;19.826;2023-11-19T04:56:20;2.30;;;1.50;;
11964;SDS011;6042;41.326;19.826;2023-11-19T04:58:49;2.37;;;1.57;;
11964;SDS011;6042;41.326;19.826;2023-11-19T05:01:18;1.70;;;1.37;;
11964;SDS011;6042;41.326;19.826;2023-11-19T05:03:47;1.40;;;1.30;;
11964;SDS011;6042;41.326;19.826;2023-11-19T05:06:16;1.17;;;1.10;;
11964;SDS011;6042;41.326;19.826;2023-11-19T05:08:45;2.00;;;1.53;;
11964;SDS011;6042;41.326;19.826;2023-11-19T05:11:14;1.17;;;1.17;;
11964;SDS011;6042;41.326;19.826;2023-11-19T05:13:47;1.43;;;1.30;;
11964;SDS011;6042;41.326;19.826;2023-11-19T05:16:15;1.10;;;1.10;;
11964;SDS011;6042;41.326;19.826;2023-11-19T05:18:44;3.40;;;1.40;;
11964;SDS011;6042;41.326;19.826;2023-11-19T05:21:13;1.40;;;1.30;;
11964;SDS011;6042;41.326;19.826;2023-11-19T05:23:41;2.00;;;1.50;;
11964;SDS011;6042;41.326;19.826;2023-11-19T05:26:16;3.93;;;1.60;;
11964;SDS011;6042;41.326;19.826;2023-11-19T05:28:47;2.90;;;1.80;;
11964;SDS011;6042;41.326;19.826;2023-11-19T05:31:17;2.00;;;1.50;;
11964;SDS011;6042;41.326;19.826;2023-11-19T05:33:46;1.20;;;1.10;;
11964;SDS011;6042;41.326;19.826;2023-11-19T05:36:15;4.93;;;1.87;;
11964;SDS011;6042;41.326;19.826;2023-11-19T05:38:43;1.60;;;1.30;;
11964;SDS011;6042;41.326;19.826;2023-11-19T05:41:12;3.67;;;1.27;;
11964;SDS011;6042;41.326;19.826;2023-11-19T05:43:41;1.40;;;1.30;;
11964;SDS011;6042;41.326;19.826;2023-11-19T05:46:11;1.50;;;1.20;;
11964;SDS011;6042;41.326;19.826;2023-11-19T05:48:43;1.20;;;1.20;;
11964;SDS011;6042;41.326;19.826;2023-11-19T05:51:13;2.93;;;1.33;;
11964;SDS011;6042;41.326;19.826;2023-11-19T05:53:43;3.80;;;1.17;;
11964;SDS011;6042;41.326;19.826;2023-11-19T05:56:13;1.63;;;0.87;;
11964;SDS011;6042;41.326;19.826;2023-11-19T05:58:42;3.90;;;0.90;;
11964;SDS011;6042;41.326;19.826;2023-11-19T06:01:13;0.70;;;0.70;;
11964;SDS011;6042;41.326;19.826;2023-11-19T06:03:42;1.03;;;1.00;;
11964;SDS011;6042;41.326;19.826;2023-11-19T06:06:14;1.97;;;0.90;;
11964;SDS011;6042;41.326;19.826;2023-11-19T06:08:43;1.10;;;1.00;;
11964;SDS011;6042;41.326;19.826;2023-11-19T06:11:12;1.00;;;0.90;;
11964;SDS011;6042;41.326;19.826;2023-11-19T06:13:45;0.80;;;0.80;;
11964;SDS011;6042;41.326;19.826;2023-11-19T06:16:19;2.10;;;0.90;;
11964;SDS011;6042;41.326;19.826;2023-11-19T06:18:48;3.60;;;1.30;;
11964;SDS011;6042;41.326;19.826;2023-11-19T06:21:17;1.10;;;1.10;;
11964;SDS011;6042;41.326;19.826;2023-11-19T06:23:46;1.10;;;1.07;;
11964;SDS011;6042;41.326;19.826;2023-11-19T06:26:15;1.77;;;1.37;;
11964;SDS011;6042;41.326;19.826;2023-11-19T06:28:44;1.60;;;1.50;;
11964;SDS011;6042;41.326;19.826;2023-11-19T06:31:13;1.80;;;1.33;;
11964;SDS011;6042;41.326;19.826;2023-11-19T06:33:44;1.47;;;1.37;;
11964;SDS011;6042;41.326;19.826;2023-11-19T06:36:14;2.10;;;0.90;;
11964;SDS011;6042;41.326;19.826;2023-11-19T06:38:44;0.83;;;0.83;;
11964;SDS011;6042;41.326;19.826;2023-11-19T06:41:12;4.87;;;2.03;;
11964;SDS011;6042;41.326;19.826;2023-11-19T06:43:41;2.07;;;1.10;;
11964;SDS011;6042;41.326;19.826;2023-11-19T06:46:16;1.60;;;1.40;;
11964;SDS011;6042;41.326;19.826;2023-11-19T06:48:46;2.20;;;1.40;;
11964;SDS011;6042;41.326;19.826;2023-11-19T06:51:15;2.07;;;1.63;;
11964;SDS011;6042;41.326;19.826;2023-11-19T06:53:44;1.97;;;1.13;;
11964;SDS011;6042;41.326;19.826;2023-11-19T06:56:19;2.43;;;1.00;;
11964;SDS011;6042;41.326;19.826;2023-11-19T06:58:51;1.90;;;1.33;;
11964;SDS011;6042;41.326;19.826;2023-11-19T07:01:19;4.93;;;1.60;;
11964;SDS011;6042;41.326;19.826;2023-11-19T07:03:50;1.47;;;1.20;;
11964;SDS011;6042;41.326;19.826;2023-11-19T07:06:18;2.70;;;1.37;;
11964;SDS011;6042;41.326;19.826;2023-11-19T07:09:00;1.73;;;1.60;;
11964;SDS011;6042;41.326;19.826;2023-11-19T07:11:36;1.67;;;1.30;;
11964;SDS011;6042;41.326;19.826;2023-11-19T07:14:06;2.87;;;1.60;;
11964;SDS011;6042;41.326;19.826;2023-11-19T07:16:35;1.50;;;1.40;;
11964;SDS011;6042;41.326;19.826;2023-11-19T07:19:07;3.63;;;1.30;;
11964;SDS011;6042;41.326;19.826;2023-11-19T07:21:35;1.63;;;1.43;;
11964;SDS011;6042;41.326;19.826;2023-11-19T07:24:06;2.03;;;1.00;;
11964;SDS011;6042;41.326;19.826;2023-11-19T07:26:35;3.43;;;1.00;;
11964;SDS011;6042;41.326;19.826;2023-11-19T07:29:07;1.27;;;1.13;;
11964;SDS011;6042;41.326;19.826;2023-11-19T07:31:36;3.20;;;1.63;;
11964;SDS011;6042;41.326;19.826;2023-11-19T07:34:05;2.07;;;1.30;;
11964;SDS011;6042;41.326;19.826;2023-11-19T07:36:35;1.00;;;0.97;;
11964;SDS011;6042;41.326;19.826;2023-11-19T07:39:04;1.50;;;1.40;;
11964;SDS011;6042;41.326;19.826;2023-11-19T07:41:33;3.83;;;1.93;;
11964;SDS011;6042;41.326;19.826;2023-11-19T07:44:04;1.93;;;1.40;;
11964;SDS011;6042;41.326;19.826;2023-11-19T07:46:33;5.93;;;2.10;;
11964;SDS011;6042;41.326;19.826;2023-11-19T07:49:02;5.73;;;1.50;;
11964;SDS011;6042;41.326;19.826;2023-11-19T07:51:32;3.53;;;1.27;;
11964;SDS011;6042;41.326;19.826;2023-11-19T07:54:01;2.83;;;1.50;;
11964;SDS011;6042;41.326;19.826;2023-11-19T07:56:31;2.63;;;1.50;;
11964;SDS011;6042;41.326;19.826;2023-11-19T07:59:01;2.33;;;1.20;;
11964;SDS011;6042;41.326;19.826;2023-11-19T08:01:30;1.30;;;1.20;;
11964;SDS011;6042;41.326;19.826;2023-11-19T08:03:58;2.63;;;1.10;;
11964;SDS011;6042;41.326;19.826;2023-11-19T08:06:29;2.27;;;1.30;;
11964;SDS011;6042;41.326;19.826;2023-11-19T08:08:59;6.13;;;1.70;;
11964;SDS011;6042;41.326;19.826;2023-11-19T08:11:28;4.63;;;1.20;;
11964;SDS011;6042;41.326;19.826;2023-11-19T08:13:56;1.93;;;1.40;;
11964;SDS011;6042;41.326;19.826;2023-11-19T08:16:25;1.40;;;1.30;;
11964;SDS011;6042;41.326;19.826;2023-11-19T08:18:54;2.10;;;1.23;;
11964;SDS011;6042;41.326;19.826;2023-11-19T08:21:25;2.33;;;2.10;;
11964;SDS011;6042;41.326;19.826;2023-11-19T08:23:53;2.63;;;1.63;;
11964;SDS011;6042;41.326;19.826;2023-11-19T08:26:23;4.07;;;1.40;;
11964;SDS011;6042;41.326;19.826;2023-11-19T08:28:52;1.57;;;1.40;;
11964;SDS011;6042;41.326;19.826;2023-11-19T08:31:21;1.43;;;1.20;;
11964;SDS011;6042;41.326;19.826;2023-11-19T08:33:49;1.37;;;1.07;;
11964;SDS011;6042;41.326;19.826;2023-11-19T08:36:18;3.60;;;1.60;;
11964;SDS011;6042;41.326;19.826;2023-11-19T08:38:47;1.60;;;1.50;;
11964;SDS011;6042;41.326;19.826;2023-11-19T08:41:16;2.63;;;1.47;;
11964;SDS011;6042;41.326;19.826;2023-11-19T08:43:47;2.10;;;1.33;;
11964;SDS011;6042;41.326;19.826;2023-11-19T08:46:19;2.97;;;2.00;;
11964;SDS011;6042;41.326;19.826;2023-11-19T08:48:48;5.60;;;1.93;;
11964;SDS011;6042;41.326;19.826;2023-11-19T08:51:17;3.43;;;2.00;;
11964;SDS011;6042;41.326;19.826;2023-11-19T08:53:45;2.27;;;2.00;;
11964;SDS011;6042;41.326;19.826;2023-11-19T08:56:14;2.47;;;1.67;;
11964;SDS011;6042;41.326;19.826;2023-11-19T08:58:43;3.57;;;2.13;;
11964;SDS011;6042;41.326;19.826;2023-11-19T09:01:13;2.30;;;1.50;;
11964;SDS011;6042;41.326;19.826;2023-11-19T09:03:42;2.90;;;1.70;;
11964;SDS011;6042;41.326;19.826;2023-11-19T09:06:11;2.63;;;1.70;;
11964;SDS011;6042;41.326;19.826;2023-11-19T09:08:39;1.93;;;1.20;;
11964;SDS011;6042;41.326;19.826;2023-11-19T09:11:09;1.30;;;1.20;;
11964;SDS011;6042;41.326;19.826;2023-11-19T09:13:38;3.13;;;2.10;;
11964;SDS011;6042;41.326;19.826;2023-11-19T09:16:07;5.03;;;2.10;;
11964;SDS011;6042;41.326;19.826;2023-11-19T09:18:37;2.30;;;1.70;;
11964;SDS011;6042;41.326;19.826;2023-11-19T09:21:06;3.43;;;1.40;;
11964;SDS011;6042;41.326;19.826;2023-11-19T09:23:35;1.63;;;1.30;;
11964;SDS011;6042;41.326;19.826;2023-11-19T09:26:06;0.80;;;0.80;;
11964;SDS011;6042;41.326;19.826;2023-11-19T09:28:37;1.60;;;1.10;;
11964;SDS011;6042;41.326;19.826;2023-11-19T09:31:12;1.37;;;1.20;;
11964;SDS011;6042;41.326;19.826;2023-11-19T09:33:43;4.73;;;1.47;;
11964;SDS011;6042;41.326;19.826;2023-11-19T09:36:17;1.30;;;1.20;;
11964;SDS011;6042;41.326;19.826;2023-11-19T09:38:46;1.27;;;1.10;;
11964;SDS011;6042;41.326;19.826;2023-11-19T09:41:15;1.20;;;1.13;;
11964;SDS011;6042;41.326;19.826;2023-11-19T09:43:46;1.50;;;1.40;;
11964;SDS011;6042;41.326;19.826;2023-11-19T09:46:15;2.80;;;1.37;;
11964;SDS011;6042;41.326;19.826;2023-11-19T09:48:46;2.53;;;1.37;;
11964;SDS011;6042;41.326;19.826;2023-11-19T09:51:19;1.80;;;1.10;;
11964;SDS011;6042;41.326;19.826;2023-11-19T09:53:48;1.80;;;1.60;;
11964;SDS011;6042;41.326;19.826;2023-11-19T09:56:18;2.53;;;1.47;;
11964;SDS011;6042;41.326;19.826;2023-11-19T09:58:47;2.37;;;1.70;;
11964;SDS011;6042;41.326;19.826;2023-11-19T10:01:16;2.63;;;1.60;;
11964;SDS011;6042;41.326;19.826;2023-11-19T10:03:55;2.00;;;1.80;;
11964;SDS011;6042;41.326;19.826;2023-11-19T10:06:25;4.00;;;1.60;;
11964;SDS011;6042;41.326;19.826;2023-11-19T10:08:54;3.73;;;2.10;;
11964;SDS011;6042;41.326;19.826;2023-11-19T10:11:23;5.20;;;2.10;;
11964;SDS011;6042;41.326;19.826;2023-11-19T10:13:52;2.03;;;1.83;;
11964;SDS011;6042;41.326;19.826;2023-11-19T10:16:28;1.93;;;1.57;;
11964;SDS011;6042;41.326;19.826;2023-11-19T10:19:01;7.90;;;2.50;;
11964;SDS011;6042;41.326;19.826;2023-11-19T10:21:32;3.90;;;2.40;;
11964;SDS011;6042;41.326;19.826;2023-11-19T10:24:01;3.00;;;2.00;;
11964;SDS011;6042;41.326;19.826;2023-11-19T10:26:31;3.27;;;2.30;;
11964;SDS011;6042;41.326;19.826;2023-11-19T10:29:01;1.73;;;1.60;;
11964;SDS011;6042;41.326;19.826;2023-11-19T10:31:30;4.10;;;2.00;;
11964;SDS011;6042;41.326;19.826;2023-11-19T10:33:59;4.77;;;2.33;;
11964;SDS011;6042;41.326;19.826;2023-11-19T10:36:38;1.77;;;1.40;;
11964;SDS011;6042;41.326;19.826;2023-11-19T10:39:09;2.13;;;1.30;;
11964;SDS011;6042;41.326;19.826;2023-11-19T10:41:39;1.30;;;1.20;;
11964;SDS011;6042;41.326;19.826;2023-11-19T10:44:08;3.10;;;1.50;;
11964;SDS011;6042;41.326;19.826;2023-11-19T10:46:37;2.40;;;2.20;;
11964;SDS011;6042;41.326;19.826;2023-11-19T10:49:07;2.87;;;2.20;;
11964;SDS011;6042;41.326;19.826;2023-11-19T10:51:39;3.00;;;2.13;;
11964;SDS011;6042;41.326;19.826;2023-11-19T10:54:13;4.60;;;2.30;;
11964;SDS011;6042;41.326;19.826;2023-11-19T10:56:47;6.90;;;2.97;;
11964;SDS011;6042;41.326;19.826;2023-11-19T10:59:22;4.90;;;3.13;;
11964;SDS011;6042;41.326;19.826;2023-11-19T11:01:58;3.50;;;2.00;;
11964;SDS011;6042;41.326;19.826;2023-11-19T11:04:33;4.37;;;2.43;;
11964;SDS011;6042;41.326;19.826;2023-11-19T11:07:06;3.43;;;2.83;;
11964;SDS011;6042;41.326;19.826;2023-11-19T11:09:36;4.33;;;2.60;;
11964;SDS011;6042;41.326;19.826;2023-11-19T11:12:06;5.23;;;2.67;;
11964;SDS011;6042;41.326;19.826;2023-11-19T11:14:35;6.67;;;2.80;;
11964;SDS011;6042;41.326;19.826;2023-11-19T11:17:08;3.47;;;3.17;;
11964;SDS011;6042;41.326;19.826;2023-11-19T11:19:39;4.70;;;3.27;;
11964;SDS011;6042;41.326;19.826;2023-11-19T11:22:12;4.80;;;3.20;;
11964;SDS011;6042;41.326;19.826;2023-11-19T11:27:54;4.07;;;2.80;;
11964;SDS011;6042;41.326;19.826;2023-11-19T11:30:35;4.50;;;3.00;;
11964;SDS011;6042;41.326;19.826;2023-11-19T11:33:19;3.57;;;2.80;;
11964;SDS011;6042;41.326;19.826;2023-11-19T11:36:03;3.53;;;2.73;;
11964;SDS011;6042;41.326;19.826;2023-11-19T11:38:42;3.80;;;2.60;;
11964;SDS011;6042;41.326;19.826;2023-11-19T11:41:15;5.87;;;3.03;;
11964;SDS011;6042;41.326;19.826;2023-11-19T11:43:46;5.27;;;2.97;;
11964;SDS011;6042;41.326;19.826;2023-11-19T11:49:25;3.63;;;3.27;;
11964;SDS011;6042;41.326;19.826;2023-11-19T11:52:02;4.50;;;2.60;;
11964;SDS011;6042;41.326;19.826;2023-11-19T11:54:33;4.00;;;3.60;;
11964;SDS011;6042;41.326;19.826;2023-11-19T11:57:03;4.47;;;3.33;;
11964;SDS011;6042;41.326;19.826;2023-11-19T11:59:45;4.90;;;3.20;;
11964;SDS011;6042;41.326;19.826;2023-11-19T12:02:15;4.17;;;3.20;;
11964;SDS011;6042;41.326;19.826;2023-11-19T12:04:48;3.57;;;3.00;;
11964;SDS011;6042;41.326;19.826;2023-11-19T12:07:20;4.33;;;3.07;;
11964;SDS011;6042;41.326;19.826;2023-11-19T12:09:53;3.57;;;3.27;;
11964;SDS011;6042;41.326;19.826;2023-11-19T12:12:38;5.63;;;3.10;;
11964;SDS011;6042;41.326;19.826;2023-11-19T12:15:09;3.23;;;2.90;;
11964;SDS011;6042;41.326;19.826;2023-11-19T12:17:41;3.17;;;2.50;;
11964;SDS011;6042;41.326;19.826;2023-11-19T12:20:17;3.40;;;2.80;;
11964;SDS011;6042;41.326;19.826;2023-11-19T12:22:49;3.10;;;2.37;;
11964;SDS011;6042;41.326;19.826;2023-11-19T12:25:20;2.33;;;2.10;;
11964;SDS011;6042;41.326;19.826;2023-11-19T12:27:49;2.47;;;2.27;;
11964;SDS011;6042;41.326;19.826;2023-11-19T12:30:21;5.23;;;2.70;;
11964;SDS011;6042;41.326;19.826;2023-11-19T12:32:52;4.90;;;2.73;;
11964;SDS011;6042;41.326;19.826;2023-11-19T12:35:22;4.80;;;3.03;;
11964;SDS011;6042;41.326;19.826;2023-11-19T12:37:51;3.70;;;2.67;;
11964;SDS011;6042;41.326;19.826;2023-11-19T12:40:22;3.10;;;2.50;;
11964;SDS011;6042;41.326;19.826;2023-11-19T12:42:52;3.60;;;2.80;;
11964;SDS011;6042;41.326;19.826;2023-11-19T12:45:22;4.00;;;2.40;;
11964;SDS011;6042;41.326;19.826;2023-11-19T12:48:03;3.47;;;2.67;;
11964;SDS011;6042;41.326;19.826;2023-11-19T12:53:20;5.60;;;3.20;;
11964;SDS011;6042;41.326;19.826;2023-11-19T12:55:51;3.80;;;2.53;;
11964;SDS011;6042;41.326;19.826;2023-11-19T12:58:28;3.37;;;2.90;;
11964;SDS011;6042;41.326;19.826;2023-11-19T13:01:01;4.20;;;2.80;;
11964;SDS011;6042;41.326;19.826;2023-11-19T13:03:32;2.77;;;2.57;;
11964;SDS011;6042;41.326;19.826;2023-11-19T13:06:02;3.20;;;2.60;;
11964;SDS011;6042;41.326;19.826;2023-11-19T13:08:38;2.53;;;2.00;;
11964;SDS011;6042;41.326;19.826;2023-11-19T13:11:09;4.43;;;2.17;;
11964;SDS011;6042;41.326;19.826;2023-11-19T13:13:53;4.73;;;2.93;;
11964;SDS011;6042;41.326;19.826;2023-11-19T13:16:24;5.23;;;2.37;;
11964;SDS011;6042;41.326;19.826;2023-11-19T13:18:53;2.67;;;2.27;;
11964;SDS011;6042;41.326;19.826;2023-11-19T13:21:24;3.00;;;2.60;;
11964;SDS011;6042;41.326;19.826;2023-11-19T13:23:53;5.80;;;3.30;;
11964;SDS011;6042;41.326;19.826;2023-11-19T13:26:23;3.47;;;2.77;;
11964;SDS011;6042;41.326;19.826;2023-11-19T13:28:52;6.77;;;3.73;;
11964;SDS011;6042;41.326;19.826;2023-11-19T13:31:23;14.07;;;7.70;;
11964;SDS011;6042;41.326;19.826;2023-11-19T13:33:51;6.30;;;4.30;;
11964;SDS011;6042;41.326;19.826;2023-11-19T13:36:20;5.63;;;2.80;;
11964;SDS011;6042;41.326;19.826;2023-11-19T13:38:52;4.53;;;2.20;;
11964;SDS011;6042;41.326;19.826;2023-11-19T13:41:27;5.43;;;2.80;;
11964;SDS011;6042;41.326;19.826;2023-11-19T13:43:56;3.87;;;2.40;;
11964;SDS011;6042;41.326;19.826;2023-11-19T13:46:25;3.20;;;2.70;;
11964;SDS011;6042;41.326;19.826;2023-11-19T13:48:54;5.57;;;2.83;;
11964;SDS011;6042;41.326;19.826;2023-11-19T13:51:22;9.03;;;3.50;;
11964;SDS011;6042;41.326;19.826;2023-11-19T13:53:51;5.00;;;3.30;;
11964;SDS011;6042;41.326;19.826;2023-11-19T13:56:20;8.73;;;4.30;;
11964;SDS011;6042;41.326;19.826;2023-11-19T13:58:51;5.33;;;2.60;;
11964;SDS011;6042;41.326;19.826;2023-11-19T14:01:30;4.57;;;2.73;;
11964;SDS011;6042;41.326;19.826;2023-11-19T14:03:59;4.87;;;3.47;;
11964;SDS011;6042;41.326;19.826;2023-11-19T14:06:27;7.40;;;4.13;;
11964;SDS011;6042;41.326;19.826;2023-11-19T14:08:56;12.80;;;7.17;;
11964;SDS011;6042;41.326;19.826;2023-11-19T14:11:25;10.17;;;5.50;;
11964;SDS011;6042;41.326;19.826;2023-11-19T14:13:55;10.33;;;6.43;;
11964;SDS011;6042;41.326;19.826;2023-11-19T14:16:26;17.40;;;9.33;;
11964;SDS011;6042;41.326;19.826;2023-11-19T14:18:54;16.70;;;11.50;;
11964;SDS011;6042;41.326;19.826;2023-11-19T14:21:23;27.80;;;16.67;;
11964;SDS011;6042;41.326;19.826;2023-11-19T14:23:54;21.03;;;12.60;;
11964;SDS011;6042;41.326;19.826;2023-11-19T14:26:23;11.67;;;6.90;;
11964;SDS011;6042;41.326;19.826;2023-11-19T14:28:52;10.33;;;6.43;;
11964;SDS011;6042;41.326;19.826;2023-11-19T14:31:23;14.40;;;7.23;;
11964;SDS011;6042;41.326;19.826;2023-11-19T14:33:55;11.07;;;7.13;;
11964;SDS011;6042;41.326;19.826;2023-11-19T14:36:24;10.10;;;6.40;;
11964;SDS011;6042;41.326;19.826;2023-11-19T14:38:54;7.80;;;4.80;;
11964;SDS011;6042;41.326;19.826;2023-11-19T14:41:24;9.80;;;4.30;;
11964;SDS011;6042;41.326;19.826;2023-11-19T14:43:53;6.97;;;4.53;;
11964;SDS011;6042;41.326;19.826;2023-11-19T14:46:23;6.27;;;3.60;;
11964;SDS011;6042;41.326;19.826;2023-11-19T14:48:52;5.80;;;3.17;;
11964;SDS011;6042;41.326;19.826;2023-11-19T14:51:21;6.37;;;3.13;;
11964;SDS011;6042;41.326;19.826;2023-11-19T14:53:49;4.97;;;3.40;;
11964;SDS011;6042;41.326;19.826;2023-11-19T14:56:18;3.77;;;3.23;;
11964;SDS011;6042;41.326;19.826;2023-11-19T14:58:47;13.50;;;6.00;;
11964;SDS011;6042;41.326;19.826;2023-11-19T15:01:17;9.70;;;4.60;;
11964;SDS011;6042;41.326;19.826;2023-11-19T15:03:49;8.17;;;4.73;;
11964;SDS011;6042;41.326;19.826;2023-11-19T15:06:22;10.17;;;6.23;;
11964;SDS011;6042;41.326;19.826;2023-11-19T15:08:53;5.03;;;3.33;;
11964;SDS011;6042;41.326;19.826;2023-11-19T15:11:22;5.80;;;3.63;;
11964;SDS011;6042;41.326;19.826;2023-11-19T15:13:51;8.03;;;4.10;;
11964;SDS011;6042;41.326;19.826;2023-11-19T15:16:20;5.13;;;3.70;;